Time;durP1;ratioP1;P1;durP2;ratioP2;P2;SDS_P1;SDS_P2;PMS_P1;PMS_P2;Temp;Humidity;BMP_temperature;BMP_pressure;BME280_temperature;BME280_humidity;BME280_pressure;Samples;Min_cycle;Max_cycle;Signal;HPM_P1;HPM_P2
2022/12/25 08:15:42;;;;;;;;;;;;;;;12.37;78.40;97059.47;4239149;27;10212;-69
2022/12/25 08:17:45;;;;;;;;;;;;;;;12.66;77.73;97053.84;4223768;28;5642;-69
2022/12/25 08:19:47;;;;;;;;;;;;;;;12.90;77.48;97056.97;4242401;27;5676;-69
2022/12/25 08:21:50;;;;;;;;;;;;;;;13.07;76.96;97058.25;4237712;27;5710;-70
2022/12/25 08:23:53;;;;;;;;;;;;;;;13.22;76.55;97045.63;4232988;27;5627;-70
2022/12/25 08:25:59;;;;;;;;;;;;;;;13.34;76.41;97046.63;4220246;28;5663;-70
2022/12/25 08:28:07;;;;;;;;;;;;;;;13.45;76.15;97041.72;4230695;28;5825;-70
2022/12/25 08:30:10;;;;;;;;;;;;;;;13.52;75.68;97048.69;4231260;27;5694;-70
2022/12/25 08:32:14;;;;;;;;;;;;;;;13.59;75.79;97056.63;4227272;28;5702;-69
2022/12/25 08:34:18;;;;;;;;;;;;;;;13.66;75.42;97062.78;4230231;27;6952;-70
2022/12/25 08:36:21;;;;;;;;;;;;;;;13.69;75.39;97057.03;4230314;28;5702;-70
2022/12/25 08:38:24;;;;;;;;;;;;;;;13.74;75.00;97065.22;4230477;28;5616;-69
2022/12/25 08:40:27;;;;;;;;;;;;;;;13.77;74.92;97069.31;4231223;27;5782;-70
2022/12/25 08:42:30;;;;;;;;;;;;;;;13.80;74.81;97067.03;4230223;28;5064;-69
2022/12/25 08:44:33;;;;;;;;;;;;;;;13.82;74.65;97066.84;4230393;28;5608;-70
2022/12/25 08:46:36;;;;;;;;;;;;;;;13.85;74.66;97058.47;4229491;28;5683;-70
2022/12/25 08:48:41;;;;;;;;;;;;;;;13.90;74.48;97063.97;4213519;28;5706;-70
2022/12/25 08:50:45;;;;;;;;;;;;;;;13.91;74.30;97060.28;4212071;28;5563;-70
2022/12/25 08:52:48;;;;;;;;;;;;;;;13.92;74.02;97067.22;4230256;28;5608;-70
2022/12/25 08:54:51;;;;;;;;;;;;;;;13.93;74.13;97064.38;4229933;28;5776;-70
2022/12/25 08:56:53;;;;;;;;;;;;;;;13.93;74.00;97069.69;4235376;27;5699;-70
2022/12/25 08:59:04;;;;;;;;;;;;;;;13.94;74.00;97075.84;4243456;27;5616;-70
2022/12/25 09:01:08;;;;;;;;;;;;;;;13.93;73.64;97075.00;4230177;28;5739;-70
2022/12/25 09:03:11;;;;;;;;;;;;;;;13.95;73.59;97072.97;4225284;28;5720;-69
2022/12/25 09:05:17;;;;;;;;;;;;;;;13.96;73.58;97073.78;4229926;28;5766;-70
2022/12/25 09:07:20;;;;;;;;;;;;;;;13.96;73.51;97061.31;4230909;27;5640;-70
2022/12/25 09:09:26;;;;;;;;;;;;;;;13.95;73.50;97043.72;4229707;28;5620;-70
2022/12/25 09:11:29;;;;;;;;;;;;;;;13.98;73.31;97053.94;4230202;28;5084;-70
2022/12/25 09:13:32;;;;;;;;;;;;;;;14.01;73.17;97059.84;4229925;28;6601;-70
2022/12/25 09:15:38;;;;;;;;;;;;;;;14.05;73.31;97066.41;4224369;28;5903;-70
2022/12/25 09:17:41;;;;;;;;;;;;;;;14.07;72.86;97067.00;4210776;28;5687;-70
2022/12/25 09:19:43;;;;;;;;;;;;;;;14.08;72.82;97065.97;4213934;28;5655;-70
2022/12/25 09:21:48;;;;;;;;;;;;;;;14.07;72.85;97067.00;4214810;28;5852;-70
2022/12/25 09:23:50;;;;;;;;;;;;;;;14.06;72.69;97062.72;4215856;28;5604;-70
2022/12/25 09:25:54;;;;;;;;;;;;;;;14.08;72.50;97076.63;4210860;28;5698;-70
2022/12/25 09:27:57;;;;;;;;;;;;;;;14.09;72.53;97079.06;4213519;28;5753;-70
2022/12/25 09:29:59;;;;;;;;;;;;;;;14.11;72.38;97076.19;4213732;28;6448;-70
2022/12/25 09:32:02;;;;;;;;;;;;;;;14.12;72.27;97086.63;4210122;28;5634;-71
2022/12/25 09:34:05;;;;;;;;;;;;;;;14.14;72.29;97081.09;4209366;28;5616;-70
2022/12/25 09:36:09;;;;;;;;;;;;;;;14.16;72.07;97084.38;4209736;28;5694;-70
2022/12/25 09:38:13;;;;;;;;;;;;;;;14.15;71.88;97082.72;4218663;28;5632;-70
2022/12/25 09:40:18;;;;;;;;;;;;;;;14.14;71.48;97081.09;4218311;28;5793;-70
2022/12/25 09:42:23;;;;;;;;;;;;;;;14.13;71.91;97076.78;4218217;28;5620;-69
2022/12/25 09:44:29;;;;;;;;;;;;;;;14.14;71.84;97075.75;4218185;28;5652;-69
2022/12/25 09:46:39;;;;;;;;;;;;;;;14.18;71.78;97074.34;4212094;28;5861;-70
2022/12/25 09:48:47;;;;;;;;;;;;;;;14.21;71.43;97068.59;4208586;28;5791;-70
2022/12/25 09:50:54;;;;;;;;;;;;;;;14.23;71.49;97048.75;4215071;28;5841;-69
2022/12/25 09:53:02;;;;;;;;;;;;;;;14.23;71.24;97054.06;4223273;28;5838;-70
2022/12/25 09:55:12;;;;;;;;;;;;;;;14.24;71.21;97060.19;4217970;28;5675;-70
2022/12/25 09:57:21;;;;;;;;;;;;;;;14.26;71.19;97058.97;4210775;28;5880;-69
2022/12/25 09:59:26;;;;;;;;;;;;;;;14.27;71.29;97065.13;4212592;28;5730;-69
2022/12/25 10:01:36;;;;;;;;;;;;;;;14.28;70.98;97066.75;4209658;28;5658;-68
2022/12/25 10:03:54;;;;;;;;;;;;;;;14.26;70.89;97052.81;4201464;28;5717;-68
2022/12/25 10:06:13;;;;;;;;;;;;;;;14.21;70.85;97050.81;4208338;28;5778;-70
2022/12/25 10:08:28;;;;;;;;;;;;;;;14.23;70.86;97050.59;4213306;28;5754;-69
2022/12/25 10:10:49;;;;;;;;;;;;;;;14.23;70.94;97056.72;4213000;28;5675;-69
2022/12/25 10:13:01;;;;;;;;;;;;;;;14.25;70.79;97056.50;4207095;28;5626;-66
2022/12/25 10:15:20;;;;;;;;;;;;;;;14.26;70.57;97052.81;4217793;28;5612;-66
2022/12/25 10:17:36;;;;;;;;;;;;;;;14.26;70.71;97053.63;4219014;28;5679;-66
2022/12/25 10:19:48;;;;;;;;;;;;;;;14.29;70.39;97055.09;4219363;28;5793;-67
2022/12/25 10:21:54;;;;;;;;;;;;;;;14.30;70.32;97056.72;4218851;28;5727;-67
2022/12/25 10:24:06;;;;;;;;;;;;;;;14.31;70.29;97038.91;4219022;28;5714;-66
2022/12/25 10:26:15;;;;;;;;;;;;;;;14.31;69.99;97050.38;4219002;28;5623;-65
2022/12/25 10:28:26;;;;;;;;;;;;;;;14.31;70.03;97054.88;4218176;28;5624;-66
2022/12/25 10:30:30;;;;;;;;;;;;;;;14.31;70.18;97050.38;4218943;28;5635;-65
2022/12/25 10:32:33;;;;;;;;;;;;;;;14.30;69.81;97046.06;4218789;28;5612;-65
2022/12/25 10:34:38;;;;;;;;;;;;;;;14.27;70.06;97036.69;4218779;28;5608;-66
2022/12/25 10:36:43;;;;;;;;;;;;;;;14.28;70.00;97043.63;4218381;28;5714;-66
2022/12/25 10:38:46;;;;;;;;;;;;;;;14.30;69.99;97042.59;4219093;28;5698;-66
2022/12/25 10:41:05;;;;;;;;;;;;;;;14.31;69.77;97037.06;4218739;28;5660;-66
2022/12/25 10:43:13;;;;;;;;;;;;;;;14.34;69.93;97028.66;4218786;28;5064;-66
2022/12/25 10:45:16;;;;;;;;;;;;;;;14.35;69.71;97030.28;4218578;28;7651;-66
2022/12/25 10:47:23;;;;;;;;;;;;;;;14.38;69.81;97042.34;4218675;28;5790;-66
2022/12/25 10:49:30;;;;;;;;;;;;;;;14.40;69.71;97032.34;4218738;28;5597;-66
2022/12/25 10:51:35;;;;;;;;;;;;;;;14.40;69.51;97038.47;4218409;28;5716;-66
2022/12/25 10:53:40;;;;;;;;;;;;;;;14.42;69.46;97028.44;4218594;28;5623;-66
2022/12/25 10:55:42;;;;;;;;;;;;;;;14.44;69.50;97018.41;4218635;28;5639;-66
2022/12/25 10:57:46;;;;;;;;;;;;;;;14.45;69.35;97013.91;4218298;28;5615;-67
2022/12/25 10:59:54;;;;;;;;;;;;;;;14.47;69.17;97018.00;4200565;28;5536;-66
2022/12/25 11:02:10;;;;;;;;;;;;;;;14.47;69.15;97007.34;4218373;28;5695;-66
2022/12/25 11:04:19;;;;;;;;;;;;;;;14.48;69.22;97008.16;4218291;28;5620;-66
2022/12/25 11:06:24;;;;;;;;;;;;;;;14.48;68.90;97021.47;4217969;28;5663;-67
2022/12/25 11:08:29;;;;;;;;;;;;;;;14.48;68.98;97024.94;4218431;28;5805;-67
2022/12/25 11:10:40;;;;;;;;;;;;;;;14.49;69.02;97020.44;4218313;28;5616;-67
2022/12/25 11:12:45;;;;;;;;;;;;;;;14.48;68.93;97002.84;4218216;28;5625;-67
2022/12/25 11:14:55;;;;;;;;;;;;;;;14.48;69.02;96984.22;4218102;28;5630;-66
2022/12/25 11:17:08;;;;;;;;;;;;;;;14.49;68.71;96968.03;4218174;28;5895;-66
2022/12/25 11:19:24;;;;;;;;;;;;;;;14.51;68.54;96981.97;4218129;28;5720;-66
2022/12/25 11:21:30;;;;;;;;;;;;;;;14.51;68.49;96991.81;4217910;28;5049;-66
2022/12/25 11:23:33;;;;;;;;;;;;;;;14.49;68.65;97013.28;4217185;28;5612;-66
2022/12/25 11:25:36;;;;;;;;;;;;;;;14.46;68.91;97031.50;4217758;28;5604;-66
2022/12/25 11:27:39;;;;;;;;;;;;;;;14.45;68.69;97024.56;4217964;28;5809;-66
2022/12/25 11:29:46;;;;;;;;;;;;;;;14.46;68.64;97021.69;4217615;28;5600;-67
2022/12/25 11:31:52;;;;;;;;;;;;;;;14.45;68.76;97025.38;4217877;28;5801;-67
2022/12/25 11:34:00;;;;;;;;;;;;;;;14.45;68.51;97028.03;4217434;28;5601;-67
2022/12/25 11:36:09;;;;;;;;;;;;;;;14.45;68.52;97017.38;4217516;28;5698;-66
2022/12/25 11:38:12;;;;;;;;;;;;;;;14.46;68.40;97008.38;4217257;28;5612;-66
2022/12/25 11:40:15;;;;;;;;;;;;;;;14.48;68.39;96992.19;4217566;28;5714;-66
2022/12/25 11:42:22;;;;;;;;;;;;;;;14.48;68.24;96987.69;4217801;28;5790;-66
2022/12/25 11:44:34;;;;;;;;;;;;;;;14.50;68.07;97000.81;4217655;28;5635;-66
2022/12/25 11:46:41;;;;;;;;;;;;;;;14.49;67.90;97005.28;4217843;28;5624;-66
2022/12/25 11:48:54;;;;;;;;;;;;;;;14.50;68.01;97006.94;4217605;28;5632;-66
2022/12/25 11:51:02;;;;;;;;;;;;;;;14.51;68.00;97013.91;4217376;28;6384;-66
2022/12/25 11:53:06;;;;;;;;;;;;;;;14.53;67.77;97014.50;4217868;28;5612;-66
2022/12/25 11:55:18;;;;;;;;;;;;;;;14.51;67.97;97013.91;4199529;28;5524;-66
2022/12/25 11:57:24;;;;;;;;;;;;;;;14.50;67.88;97016.78;4217975;28;5684;-66
2022/12/25 11:59:32;;;;;;;;;;;;;;;14.48;68.02;97019.63;4217522;28;5714;-66
2022/12/25 12:01:38;;;;;;;;;;;;;;;14.49;67.84;97007.13;4217728;28;5628;-66
2022/12/25 12:03:43;;;;;;;;;;;;;;;14.49;67.94;97004.47;4217493;28;5076;-66
2022/12/25 12:05:53;;;;;;;;;;;;;;;14.52;67.91;97004.06;4217269;28;5600;-67
2022/12/25 12:07:59;;;;;;;;;;;;;;;14.52;67.67;97010.19;4217577;28;5722;-65
2022/12/25 12:10:13;;;;;;;;;;;;;;;14.50;67.75;97017.59;4217535;28;5122;-66
2022/12/25 12:12:22;;;;;;;;;;;;;;;14.51;67.76;97000.59;4217507;28;5597;-66
2022/12/25 12:14:42;;;;;;;;;;;;;;;14.53;67.64;97009.16;4217035;28;5605;-66
2022/12/25 12:16:45;;;;;;;;;;;;;;;14.59;67.44;97004.00;4217539;28;5607;-67
2022/12/25 12:18:48;;;;;;;;;;;;;;;14.60;67.62;97008.31;4217396;28;5612;-67
2022/12/25 12:21:03;;;;;;;;;;;;;;;14.61;67.42;97007.28;4217041;28;5629;-67
2022/12/25 12:23:16;;;;;;;;;;;;;;;14.60;67.53;97011.78;4217615;28;5624;-67
2022/12/25 12:25:21;;;;;;;;;;;;;;;14.59;67.26;97025.31;4217534;28;6460;-67
2022/12/25 12:27:30;;;;;;;;;;;;;;;14.59;67.37;97027.97;4217129;28;5631;-67
2022/12/25 12:29:39;;;;;;;;;;;;;;;14.59;67.23;97025.31;4217330;28;5150;-67
2022/12/25 12:31:45;;;;;;;;;;;;;;;14.56;67.41;97011.41;4217198;28;5675;-67
2022/12/25 12:33:53;;;;;;;;;;;;;;;14.60;67.31;97010.97;4217209;28;5700;-67
2022/12/25 12:35:57;;;;;;;;;;;;;;;14.59;67.27;97002.16;4216898;28;5611;-66
2022/12/25 12:38:06;;;;;;;;;;;;;;;14.60;67.04;97000.31;4217265;28;5612;-66
2022/12/25 12:40:25;;;;;;;;;;;;;;;14.60;67.15;97016.28;4217450;28;5619;-66
2022/12/25 12:42:30;;;;;;;;;;;;;;;14.59;67.06;97004.00;4217156;28;5616;-66
2022/12/25 12:44:34;;;;;;;;;;;;;;;14.56;67.17;97000.75;4217327;28;5616;-67
2022/12/25 12:46:38;;;;;;;;;;;;;;;14.54;67.33;97005.47;4217032;28;5608;-67
2022/12/25 12:48:44;;;;;;;;;;;;;;;14.55;67.16;97001.78;4200440;28;5690;-67
2022/12/25 12:50:47;;;;;;;;;;;;;;;14.56;67.09;97000.75;4201301;28;5854;-66
2022/12/25 12:52:50;;;;;;;;;;;;;;;14.59;67.13;97006.69;4213577;28;5608;-66
2022/12/25 12:55:00;;;;;;;;;;;;;;;14.59;67.16;97009.34;4220511;28;5616;-66
2022/12/25 12:57:05;;;;;;;;;;;;;;;14.57;66.98;96999.72;4220162;28;5608;-66
2022/12/25 12:59:10;;;;;;;;;;;;;;;14.57;67.01;97010.38;4220320;28;5607;-66
2022/12/25 13:01:36;;;;;;;;;;;;;;;14.55;67.00;97004.44;4220223;28;5608;-65
2022/12/25 13:04:04;;;;;;;;;;;;;;;14.54;67.15;97008.16;4211500;28;5625;-66
2022/12/25 13:06:14;;;;;;;;;;;;;;;14.53;66.93;96998.53;4219760;28;5619;-65
2022/12/25 13:08:32;;;;;;;;;;;;;;;14.49;67.03;97005.28;4220274;28;5836;-67
2022/12/25 13:10:39;;;;;;;;;;;;;;;14.50;67.10;97006.13;4220106;28;5620;-66
2022/12/25 13:12:42;;;;;;;;;;;;;;;14.49;66.80;96991.97;4219968;28;5742;-66
2022/12/25 13:14:46;;;;;;;;;;;;;;;14.50;66.99;97000.81;4219744;28;5616;-66
2022/12/25 13:16:51;;;;;;;;;;;;;;;14.51;66.98;97013.91;4219742;28;5604;-66
2022/12/25 13:18:56;;;;;;;;;;;;;;;14.49;67.07;97010.59;4219969;28;5608;-66
2022/12/25 13:21:03;;;;;;;;;;;;;;;14.48;66.75;97008.97;4219818;28;5631;-66
2022/12/25 13:23:24;;;;;;;;;;;;;;;14.50;66.79;97012.28;4219325;28;5807;-66
2022/12/25 13:25:27;;;;;;;;;;;;;;;14.51;66.86;97010.41;4219295;28;5703;-66
2022/12/25 13:27:33;;;;;;;;;;;;;;;14.52;66.72;97010.19;4219740;28;5642;-66
2022/12/25 13:29:38;;;;;;;;;;;;;;;14.50;66.71;97008.78;4220009;28;5707;-67
2022/12/25 13:31:41;;;;;;;;;;;;;;;14.49;66.64;97021.25;4219870;28;5711;-66
2022/12/25 13:33:46;;;;;;;;;;;;;;;14.48;66.59;97014.28;4219632;28;5750;-66
2022/12/25 13:35:50;;;;;;;;;;;;;;;14.47;66.78;97001.22;4219612;28;5603;-66
2022/12/25 13:37:53;;;;;;;;;;;;;;;14.45;66.68;96998.78;4219360;28;5612;-66
2022/12/25 13:39:58;;;;;;;;;;;;;;;14.43;66.77;97006.13;4219458;28;5706;-66
2022/12/25 13:42:08;;;;;;;;;;;;;;;14.44;66.48;97001.63;4219840;28;5072;-66
2022/12/25 13:44:19;;;;;;;;;;;;;;;14.43;66.44;97003.47;4219826;28;5624;-66
2022/12/25 13:46:25;;;;;;;;;;;;;;;14.43;66.64;97005.31;4219575;28;5612;-66
2022/12/25 13:48:30;;;;;;;;;;;;;;;14.43;66.59;97003.47;4219811;28;5608;-66
2022/12/25 13:50:34;;;;;;;;;;;;;;;14.45;66.59;97000.63;4219199;28;5697;-65
2022/12/25 13:52:38;;;;;;;;;;;;;;;14.46;66.42;96994.25;4219510;28;5620;-66
2022/12/25 13:54:52;;;;;;;;;;;;;;;14.43;66.36;96992.81;4211515;28;5103;-66
2022/12/25 13:56:55;;;;;;;;;;;;;;;14.43;66.34;96995.47;4219357;28;5619;-65
2022/12/25 13:58:58;;;;;;;;;;;;;;;14.44;66.52;96999.81;4219516;28;5620;-66
2022/12/25 14:01:03;;;;;;;;;;;;;;;14.43;66.50;96997.31;4219233;28;5675;-66
2022/12/25 14:03:07;;;;;;;;;;;;;;;14.42;66.48;96991.19;4219151;28;5621;-65
2022/12/25 14:05:23;;;;;;;;;;;;;;;14.41;66.52;96994.88;4218867;28;5691;-65
2022/12/25 14:07:27;;;;;;;;;;;;;;;14.40;66.36;96990.59;4218959;28;5604;-65
2022/12/25 14:09:31;;;;;;;;;;;;;;;14.40;66.25;96993.25;4219148;28;5616;-65
2022/12/25 14:11:35;;;;;;;;;;;;;;;14.37;66.58;96996.31;4201380;28;6237;-66
2022/12/25 14:13:41;;;;;;;;;;;;;;;14.36;66.35;96997.34;4219056;28;5060;-66
2022/12/25 14:15:46;;;;;;;;;;;;;;;14.37;66.32;97000.81;4218912;28;5616;-65
2022/12/25 14:17:51;;;;;;;;;;;;;;;14.38;66.49;97003.25;4219039;28;5628;-66
2022/12/25 14:19:59;;;;;;;;;;;;;;;14.40;66.37;97006.56;4218986;28;5659;-66
2022/12/25 14:22:18;;;;;;;;;;;;;;;14.39;66.22;96999.59;4218411;28;5608;-65
2022/12/25 14:24:24;;;;;;;;;;;;;;;14.40;66.22;96995.91;4218742;28;5624;-66
2022/12/25 14:26:30;;;;;;;;;;;;;;;14.40;66.20;97005.75;4218605;28;6406;-66
2022/12/25 14:28:35;;;;;;;;;;;;;;;14.38;66.25;97002.44;4218848;28;5616;-66
2022/12/25 14:30:42;;;;;;;;;;;;;;;14.35;66.10;97009.00;4218926;28;5639;-67
2022/12/25 14:32:49;;;;;;;;;;;;;;;14.34;66.18;97014.53;4218769;28;5759;-67
2022/12/25 14:34:56;;;;;;;;;;;;;;;14.34;66.29;97015.38;4200934;28;6992;-66
2022/12/25 14:37:00;;;;;;;;;;;;;;;14.34;66.12;97007.38;4218558;28;5600;-65
2022/12/25 14:39:06;;;;;;;;;;;;;;;14.33;66.31;97004.94;4218547;28;5722;-66
2022/12/25 14:41:19;;;;;;;;;;;;;;;14.32;66.22;96998.00;4218658;28;5613;-66
2022/12/25 14:43:29;;;;;;;;;;;;;;;14.31;66.08;96997.19;4217799;28;5612;-68
2022/12/25 14:45:34;;;;;;;;;;;;;;;14.32;66.24;96993.50;4218844;28;5623;-67
2022/12/25 14:47:50;;;;;;;;;;;;;;;14.30;66.26;96984.91;4218703;28;5724;-67
2022/12/25 14:49:55;;;;;;;;;;;;;;;14.32;66.24;96996.16;4201886;28;5642;-66
2022/12/25 14:51:58;;;;;;;;;;;;;;;14.32;66.06;96998.81;4212760;28;5719;-67
2022/12/25 14:54:04;;;;;;;;;;;;;;;14.32;66.06;96996.16;4218431;28;6399;-67
2022/12/25 14:56:09;;;;;;;;;;;;;;;14.33;66.04;96995.13;4218363;28;5730;-66
2022/12/25 14:58:21;;;;;;;;;;;;;;;14.32;66.22;96988.16;4218504;28;5620;-67
2022/12/25 15:00:27;;;;;;;;;;;;;;;14.34;66.24;96991.44;4218583;28;5623;-67
2022/12/25 15:02:39;;;;;;;;;;;;;;;14.35;66.17;96993.06;4218176;28;5619;-69
2022/12/25 15:04:43;;;;;;;;;;;;;;;14.34;66.01;96986.09;4218214;28;5710;-67
2022/12/25 15:06:54;;;;;;;;;;;;;;;14.35;66.18;96987.75;4218171;28;5600;-67
2022/12/25 15:08:58;;;;;;;;;;;;;;;14.36;65.85;96984.03;4218199;28;5825;-66
2022/12/25 15:11:01;;;;;;;;;;;;;;;14.37;65.85;96992.84;4218419;28;6711;-67
2022/12/25 15:13:05;;;;;;;;;;;;;;;14.36;66.15;96994.69;4217353;28;6879;-67
2022/12/25 15:15:09;;;;;;;;;;;;;;;14.37;65.99;96991.00;4217916;28;5613;-75
2022/12/25 15:17:24;;;;;;;;;;;;;;;14.35;66.07;96995.72;4218124;28;5640;-68
2022/12/25 15:19:30;;;;;;;;;;;;;;;14.35;65.84;96982.41;4218286;28;5687;-73
2022/12/25 15:21:39;;;;;;;;;;;;;;;14.33;65.91;96981.81;4201197;28;5631;-69
2022/12/25 15:23:43;;;;;;;;;;;;;;;14.32;65.97;96982.84;4201171;28;6275;-69
2022/12/25 15:25:47;;;;;;;;;;;;;;;14.32;65.95;96992.69;4210831;28;5679;-74
2022/12/25 15:27:49;;;;;;;;;;;;;;;14.30;65.92;96984.91;4218173;28;5683;-69
2022/12/25 15:29:52;;;;;;;;;;;;;;;14.28;66.15;96986.97;4218167;28;5596;-69
2022/12/25 15:32:17;;;;;;;;;;;;;;;14.28;65.92;96989.63;4217287;28;5695;-70
2022/12/25 15:34:21;;;;;;;;;;;;;;;14.26;65.92;96981.84;4218086;28;5719;-71
2022/12/25 15:36:24;;;;;;;;;;;;;;;14.25;66.15;96968.75;4217588;28;5620;-73
2022/12/25 15:38:27;;;;;;;;;;;;;;;14.25;65.97;96968.75;4217936;28;5707;-68
2022/12/25 15:40:31;;;;;;;;;;;;;;;14.23;66.01;96965.50;4217904;28;5620;-69
2022/12/25 15:42:34;;;;;;;;;;;;;;;14.24;66.00;96972.44;4218076;28;5069;-70
2022/12/25 15:44:36;;;;;;;;;;;;;;;14.22;65.99;96977.97;4217667;28;5620;-72
2022/12/25 15:46:39;;;;;;;;;;;;;;;14.21;66.00;96979.00;4217772;28;5616;-72
2022/12/25 15:48:42;;;;;;;;;;;;;;;14.22;66.03;96975.31;4217858;28;5616;-72
2022/12/25 15:50:45;;;;;;;;;;;;;;;14.22;65.85;96974.50;4217647;28;5620;-71
2022/12/25 15:52:48;;;;;;;;;;;;;;;14.21;65.94;96963.06;4217687;28;5744;-70
2022/12/25 15:54:52;;;;;;;;;;;;;;;14.20;65.87;96965.94;4217843;28;5608;-71
2022/12/25 15:57:00;;;;;;;;;;;;;;;14.15;65.84;96971.88;4217464;28;5620;-69
2022/12/25 15:59:03;;;;;;;;;;;;;;;14.10;65.99;96968.22;4217419;28;5616;-69
2022/12/25 16:01:06;;;;;;;;;;;;;;;14.08;66.04;96980.91;4217451;28;5628;-73
2022/12/25 16:03:09;;;;;;;;;;;;;;;14.06;66.04;96989.09;4217682;28;5692;-72
2022/12/25 16:05:12;;;;;;;;;;;;;;;14.06;66.06;96982.97;4217395;28;5600;-68
2022/12/25 16:07:16;;;;;;;;;;;;;;;14.05;65.81;96991.97;4217471;28;5712;-68
2022/12/25 16:09:20;;;;;;;;;;;;;;;14.03;65.85;96994.00;4217291;28;5703;-74
2022/12/25 16:11:22;;;;;;;;;;;;;;;13.99;65.84;96999.75;4217678;28;5627;-71
2022/12/25 16:13:27;;;;;;;;;;;;;;;13.98;65.99;96976.84;4217675;28;5666;-69
2022/12/25 16:15:29;;;;;;;;;;;;;;;14.01;65.97;96985.44;4217067;28;5834;-74
2022/12/25 16:17:32;;;;;;;;;;;;;;;13.97;65.74;96980.53;4217519;28;5612;-72
2022/12/25 16:19:35;;;;;;;;;;;;;;;13.96;65.66;96978.09;4217476;28;5100;-72
2022/12/25 16:21:41;;;;;;;;;;;;;;;13.93;65.84;96994.44;4217053;28;5623;-70
2022/12/25 16:23:44;;;;;;;;;;;;;;;13.91;65.96;96991.19;4217303;28;5612;-74
2022/12/25 16:25:47;;;;;;;;;;;;;;;13.89;65.67;96991.41;4218416;28;5667;-74
2022/12/25 16:27:50;;;;;;;;;;;;;;;13.89;65.93;96991.41;4221052;28;5628;-68
2022/12/25 16:29:54;;;;;;;;;;;;;;;13.89;65.79;96993.22;4213545;28;6492;-67
2022/12/25 16:31:56;;;;;;;;;;;;;;;13.88;65.77;96992.41;4196135;28;6581;-70
2022/12/25 16:34:00;;;;;;;;;;;;;;;13.89;65.72;96999.38;4191139;28;5841;-68
2022/12/25 16:36:03;;;;;;;;;;;;;;;13.90;65.69;96997.53;4208936;28;5710;-70
2022/12/25 16:38:05;;;;;;;;;;;;;;;13.87;65.83;97001.41;4215904;28;5789;-67
2022/12/25 16:40:09;;;;;;;;;;;;;;;13.87;65.70;96989.97;4217037;28;5834;-68
2022/12/25 16:42:12;;;;;;;;;;;;;;;13.87;65.83;96993.44;4211796;28;5676;-71
2022/12/25 16:44:15;;;;;;;;;;;;;;;13.85;65.61;96992.84;4211722;28;5718;-73
2022/12/25 16:46:21;;;;;;;;;;;;;;;13.84;65.79;96995.72;4209661;28;5769;-67
2022/12/25 16:48:24;;;;;;;;;;;;;;;13.84;65.73;96991.22;4208524;28;5875;-70
2022/12/25 16:50:26;;;;;;;;;;;;;;;13.86;65.59;96993.66;4209390;28;5758;-70
2022/12/25 16:52:30;;;;;;;;;;;;;;;13.84;65.71;97006.34;4219558;28;5728;-71
2022/12/25 16:54:33;;;;;;;;;;;;;;;13.81;65.53;97007.56;4209211;28;5088;-65
2022/12/25 16:56:36;;;;;;;;;;;;;;;13.78;65.58;97018.59;4216668;28;5784;-66
2022/12/25 16:58:38;;;;;;;;;;;;;;;13.76;65.75;97030.47;4212305;28;5770;-69
2022/12/25 17:00:41;;;;;;;;;;;;;;;13.74;65.57;97028.03;4212414;28;6231;-72
2022/12/25 17:02:52;;;;;;;;;;;;;;;13.78;65.63;97029.22;4209286;28;6317;-74
2022/12/25 17:04:55;;;;;;;;;;;;;;;13.79;65.51;97033.53;4210007;28;5762;-65
2022/12/25 17:06:58;;;;;;;;;;;;;;;13.80;65.64;97040.47;4207847;28;5699;-67
2022/12/25 17:09:02;;;;;;;;;;;;;;;13.77;65.50;97046.19;4207721;28;5599;-72
2022/12/25 17:11:05;;;;;;;;;;;;;;;13.78;65.74;97042.53;4210295;28;5873;-73
2022/12/25 17:13:08;;;;;;;;;;;;;;;13.78;65.63;97045.19;4206966;28;5785;-68
2022/12/25 17:15:12;;;;;;;;;;;;;;;13.79;65.52;97041.50;4206519;28;5631;-63
2022/12/25 17:17:15;;;;;;;;;;;;;;;13.79;65.56;97046.81;4209938;28;5691;-71
2022/12/25 17:19:21;;;;;;;;;;;;;;;13.77;65.35;97032.91;4209862;28;5738;-72
2022/12/25 17:21:25;;;;;;;;;;;;;;;13.76;65.49;97039.25;4210542;28;5831;-68
2022/12/25 17:23:27;;;;;;;;;;;;;;;13.77;65.59;97038.22;4211452;28;5632;-71
2022/12/25 17:25:33;;;;;;;;;;;;;;;13.78;65.59;97031.88;4209115;28;5707;-73
2022/12/25 17:27:36;;;;;;;;;;;;;;;13.79;65.47;97033.53;4213453;28;5847;-68
2022/12/25 17:29:39;;;;;;;;;;;;;;;13.80;65.67;97027.19;4210184;28;5596;-73
2022/12/25 17:31:42;;;;;;;;;;;;;;;13.80;65.46;97021.88;4213784;28;5699;-70
2022/12/25 17:33:45;;;;;;;;;;;;;;;13.79;65.36;97020.22;4212181;28;5761;-66
2022/12/25 17:35:49;;;;;;;;;;;;;;;13.79;65.25;97033.53;4204774;28;5818;-68
2022/12/25 17:37:52;;;;;;;;;;;;;;;13.79;65.47;97035.38;4209461;28;6300;-70
2022/12/25 17:39:54;;;;;;;;;;;;;;;13.78;65.37;97031.06;4213428;28;5608;-64
2022/12/25 17:41:57;;;;;;;;;;;;;;;13.78;65.54;97028.41;4218039;28;5786;-73
2022/12/25 17:44:00;;;;;;;;;;;;;;;13.76;65.47;97028.63;4190784;28;5706;-73
2022/12/25 17:46:05;;;;;;;;;;;;;;;13.77;65.36;97019.63;4209855;28;5719;-73
2022/12/25 17:48:07;;;;;;;;;;;;;;;13.78;65.28;97015.94;4212237;28;5774;-75
2022/12/25 17:50:10;;;;;;;;;;;;;;;13.77;65.38;97018.81;4216127;28;5659;-69
2022/12/25 17:52:14;;;;;;;;;;;;;;;13.76;65.32;97015.34;4213302;28;5627;-75
2022/12/25 17:54:17;;;;;;;;;;;;;;;13.76;65.34;97025.97;4215002;28;5747;-72
2022/12/25 17:56:21;;;;;;;;;;;;;;;13.80;65.21;97023.72;4215741;28;5795;-72
2022/12/25 17:58:24;;;;;;;;;;;;;;;13.81;65.29;97020.84;4216970;28;5832;-72
2022/12/25 18:00:27;;;;;;;;;;;;;;;13.83;65.22;97026.78;4213855;28;5707;-72
2022/12/25 18:02:30;;;;;;;;;;;;;;;13.84;65.18;97028.41;4216068;28;6297;-72
2022/12/25 18:04:33;;;;;;;;;;;;;;;13.85;65.32;97022.06;4217416;28;5696;-72
2022/12/25 18:06:36;;;;;;;;;;;;;;;13.84;65.08;97035.56;4209921;28;5635;-71
2022/12/25 18:08:41;;;;;;;;;;;;;;;13.82;65.13;97027.81;4211530;28;6113;-73
2022/12/25 18:10:44;;;;;;;;;;;;;;;13.82;65.27;97025.16;4211981;28;5925;-82
2022/12/25 18:12:46;;;;;;;;;;;;;;;13.81;65.24;97026.16;4209198;28;5600;-79
2022/12/25 18:14:49;;;;;;;;;;;;;;;13.78;65.29;97023.91;4211481;28;5725;-78
2022/12/25 18:16:52;;;;;;;;;;;;;;;13.78;65.21;97029.22;4209473;28;5699;-78
2022/12/25 18:18:55;;;;;;;;;;;;;;;13.77;65.07;97021.47;4216336;28;5694;-78
2022/12/25 18:20:58;;;;;;;;;;;;;;;13.75;65.38;97013.72;4217010;28;5787;-78
2022/12/25 18:23:02;;;;;;;;;;;;;;;13.74;65.31;97028.03;4204358;28;5632;-74
2022/12/25 18:25:07;;;;;;;;;;;;;;;13.73;65.10;97013.13;4206968;28;5850;-84
2022/12/25 18:27:09;;;;;;;;;;;;;;;13.72;65.33;97005.34;4206360;28;5729;-79
2022/12/25 18:29:12;;;;;;;;;;;;;;;13.72;65.24;97015.97;4210320;28;5707;-80
2022/12/25 18:31:17;;;;;;;;;;;;;;;13.70;65.14;97016.16;4211324;28;5736;-79
2022/12/25 18:33:20;;;;;;;;;;;;;;;13.68;65.09;97023.53;4214600;28;5604;-74
2022/12/25 18:35:27;;;;;;;;;;;;;;;13.67;65.27;97017.41;4204291;28;5682;-78
2022/12/25 18:37:30;;;;;;;;;;;;;;;13.67;64.87;97019.25;4215564;28;5873;-75
2022/12/25 18:39:41;;;;;;;;;;;;;;;13.66;64.92;97021.09;4208237;28;5699;-74
2022/12/25 18:44:05;;;;;;;;;;;;;;;13.63;65.12;97044.59;4216052;28;5699;-75
2022/12/25 18:46:08;;;;;;;;;;;;;;;13.61;65.07;97039.50;4215977;28;5876;-73
2022/12/25 18:48:12;;;;;;;;;;;;;;;13.61;65.15;97033.38;4214597;28;5627;-67
2022/12/25 18:50:15;;;;;;;;;;;;;;;13.62;65.07;97038.47;4216389;28;5629;-75
2022/12/25 18:52:17;;;;;;;;;;;;;;;13.59;64.89;97027.41;4213447;28;6330;-70
2022/12/25 18:54:40;;;;;;;;;;;;;;;13.58;64.85;97028.44;4212343;28;5627;-69
2022/12/25 18:56:45;;;;;;;;;;;;;;;13.56;64.75;97027.84;4212526;28;5655;-72
2022/12/25 18:58:54;;;;;;;;;;;;;;;13.55;65.02;97015.56;4210076;28;5630;-72
2022/12/25 19:00:57;;;;;;;;;;;;;;;13.54;65.00;97020.06;4215119;28;5762;-76
2022/12/25 19:03:00;;;;;;;;;;;;;;;13.53;65.00;97012.31;4203428;28;5703;-77
2022/12/25 19:05:04;;;;;;;;;;;;;;;13.54;65.01;97024.56;4216085;28;5703;-74
2022/12/25 19:07:07;;;;;;;;;;;;;;;13.52;65.07;97031.94;4213724;28;5758;-76
2022/12/25 19:09:09;;;;;;;;;;;;;;;13.54;64.80;97037.84;4219042;28;5741;-74
2022/12/25 19:11:13;;;;;;;;;;;;;;;13.53;64.83;97037.03;4219377;28;5632;-74
2022/12/25 19:13:17;;;;;;;;;;;;;;;13.52;65.07;97039.91;4215884;28;5628;-79
2022/12/25 19:15:21;;;;;;;;;;;;;;;13.54;64.75;97043.16;4209601;28;5667;-73
2022/12/25 19:17:24;;;;;;;;;;;;;;;13.54;64.72;97049.28;4215395;28;5615;-77
2022/12/25 19:19:34;;;;;;;;;;;;;;;13.52;64.83;97040.72;4213653;28;5723;-81
2022/12/25 19:21:36;;;;;;;;;;;;;;;13.53;64.86;97046.84;4212700;28;5603;-78